createdAt,value
2022-10-19T00:01:30.106Z,7.68
2022-10-19T00:04:17.386Z,11.10
2022-10-19T00:07:05.245Z,7.95
2022-10-19T00:09:52.716Z,7.70
2022-10-19T00:12:40.557Z,6.97
2022-10-19T00:15:28.116Z,6.65
2022-10-19T00:18:15.936Z,6.78
2022-10-19T00:21:04.712Z,5.72
2022-10-19T00:23:52.656Z,9.02
2022-10-19T00:26:40.147Z,7.35
2022-10-19T00:29:27.368Z,7.15
2022-10-19T00:32:15.209Z,6.65
2022-10-19T00:35:04.100Z,8.57
2022-10-19T00:37:51.786Z,8.35
2022-10-19T00:40:40.274Z,8.02
2022-10-19T00:43:30.863Z,6.03
2022-10-19T00:46:18.678Z,6.30
2022-10-19T00:49:14.910Z,15.10
2022-10-19T00:52:04.012Z,7.50
2022-10-19T00:54:52.637Z,6.68
2022-10-19T00:57:40.668Z,10.50
2022-10-19T01:00:28.107Z,6.07
2022-10-19T01:03:15.649Z,7.90
2022-10-19T01:06:04.167Z,6.07
2022-10-19T01:08:51.342Z,5.60
2022-10-19T01:11:51.130Z,5.28
2022-10-19T01:14:38.476Z,5.72
2022-10-19T01:17:32.172Z,7.43
2022-10-19T01:20:33.696Z,6.13
2022-10-19T01:23:21.501Z,8.27
2022-10-19T01:26:23.916Z,5.00
2022-10-19T01:29:30.109Z,5.60
2022-10-19T01:32:25.027Z,6.00
2022-10-19T01:35:25.018Z,7.60
2022-10-19T01:38:18.963Z,6.20
2022-10-19T01:41:16.177Z,5.50
2022-10-19T01:44:03.997Z,5.70
2022-10-19T01:46:53.969Z,4.93
2022-10-19T01:49:50.207Z,6.68
2022-10-19T01:52:38.826Z,6.88
2022-10-19T01:55:27.721Z,7.25
2022-10-19T01:58:17.888Z,5.68
2022-10-19T02:01:07.290Z,10.65
2022-10-19T02:03:55.811Z,6.30
2022-10-19T02:06:44.317Z,6.47
2022-10-19T02:09:32.078Z,8.35
2022-10-19T02:12:19.526Z,7.65
2022-10-19T02:15:10.729Z,11.52
2022-10-19T02:18:00.238Z,8.63
2022-10-19T02:20:47.990Z,10.57
2022-10-19T02:23:35.398Z,9.18
2022-10-19T02:26:23.436Z,9.52
2022-10-19T02:29:11.687Z,9.57
2022-10-19T02:31:59.728Z,9.60
2022-10-19T02:34:47.019Z,9.02
2022-10-19T02:37:37.520Z,10.43
2022-10-19T02:40:25.685Z,11.68
2022-10-19T02:43:15.137Z,9.48
2022-10-19T02:46:15.654Z,9.20
2022-10-19T02:49:05.339Z,11.52
2022-10-19T02:51:57.006Z,13.70
2022-10-19T02:54:45.490Z,13.15
2022-10-19T02:57:33.604Z,11.10
2022-10-19T03:00:21.065Z,11.43
2022-10-19T03:03:08.694Z,12.13
2022-10-19T03:05:56.468Z,10.80
2022-10-19T03:08:44.335Z,14.40
2022-10-19T03:11:32.091Z,9.77
2022-10-19T03:14:19.700Z,13.15
2022-10-19T03:17:07.596Z,10.63
2022-10-19T03:19:54.973Z,11.88
2022-10-19T03:22:42.688Z,12.25
2022-10-19T03:25:30.061Z,10.50
2022-10-19T03:28:17.708Z,11.65
2022-10-19T03:31:05.121Z,15.02
2022-10-19T03:33:52.747Z,12.85
2022-10-19T03:36:41.104Z,14.07
2022-10-19T03:39:28.931Z,13.55
2022-10-19T03:42:16.799Z,13.55
2022-10-19T03:45:04.697Z,12.95
2022-10-19T03:47:52.973Z,12.27
2022-10-19T03:50:40.358Z,14.23
2022-10-19T03:53:28.037Z,13.93
2022-10-19T03:56:16.924Z,15.98
2022-10-19T03:59:05.365Z,14.57
2022-10-19T04:01:52.766Z,14.60
2022-10-19T04:04:40.496Z,14.88
2022-10-19T04:07:28.140Z,14.95
2022-10-19T04:10:15.605Z,22.20
2022-10-19T04:13:03.445Z,17.50
2022-10-19T04:15:51.338Z,15.95
2022-10-19T04:18:38.546Z,18.33
2022-10-19T04:21:33.848Z,15.88
2022-10-19T04:24:21.097Z,15.40
2022-10-19T04:27:08.806Z,16.05
2022-10-19T04:29:56.027Z,17.67
2022-10-19T04:32:43.655Z,18.88
2022-10-19T04:35:31.102Z,19.55
2022-10-19T04:38:18.961Z,18.27
2022-10-19T04:41:07.539Z,23.02
2022-10-19T04:43:59.408Z,16.30
2022-10-19T04:46:46.618Z,17.08
2022-10-19T04:49:34.447Z,19.77
2022-10-19T04:52:21.886Z,16.17
2022-10-19T04:55:09.676Z,16.50
2022-10-19T04:57:57.054Z,19.20
2022-10-19T05:00:44.939Z,18.75
2022-10-19T05:03:32.775Z,20.83
2022-10-19T05:06:19.972Z,16.70
2022-10-19T05:09:07.577Z,17.20
2022-10-19T05:11:55.020Z,19.20
2022-10-19T05:14:43.093Z,17.05
2022-10-19T05:17:32.080Z,17.92
2022-10-19T05:20:20.163Z,15.52
2022-10-19T05:23:07.971Z,15.13
2022-10-19T05:26:02.810Z,14.45
2022-10-19T05:28:50.601Z,13.52
2022-10-19T05:31:38.739Z,17.13
2022-10-19T05:34:26.396Z,15.60
2022-10-19T05:37:13.775Z,15.23
2022-10-19T05:40:01.670Z,14.93
2022-10-19T05:42:49.049Z,13.80
2022-10-19T05:45:36.855Z,16.85
2022-10-19T05:48:24.339Z,20.15
2022-10-19T05:51:12.744Z,13.02
2022-10-19T05:54:00.188Z,11.25
2022-10-19T05:56:48.013Z,13.10
2022-10-19T05:59:35.644Z,15.55
2022-10-19T06:02:22.997Z,13.65
2022-10-19T06:05:10.742Z,13.57
2022-10-19T06:07:57.942Z,13.02
2022-10-19T06:10:46.075Z,12.60
2022-10-19T06:13:33.539Z,12.77
2022-10-19T06:16:21.299Z,12.40
2022-10-19T06:19:09.254Z,20.83
2022-10-19T06:21:56.455Z,13.82
2022-10-19T06:24:43.848Z,16.05
2022-10-19T06:27:32.526Z,13.95
2022-10-19T06:30:20.677Z,14.00
2022-10-19T06:33:08.973Z,14.75
2022-10-19T06:35:56.463Z,17.50
2022-10-19T06:38:43.794Z,17.38
2022-10-19T06:41:32.018Z,17.67
2022-10-19T06:44:20.154Z,19.67
2022-10-19T06:47:07.617Z,15.40
2022-10-19T06:49:55.266Z,16.95
2022-10-19T06:52:43.090Z,15.30
2022-10-19T06:55:30.483Z,15.48
2022-10-19T06:58:17.820Z,15.68
2022-10-19T07:01:07.595Z,16.50
2022-10-19T07:03:55.775Z,15.15
2022-10-19T07:06:43.214Z,16.25
2022-10-19T07:09:31.095Z,17.58
2022-10-19T07:12:18.498Z,14.70
2022-10-19T07:15:06.881Z,18.13
2022-10-19T07:17:54.635Z,16.15
2022-10-19T07:20:42.581Z,15.50
2022-10-19T07:23:30.571Z,18.30
2022-10-19T07:26:21.525Z,16.70
2022-10-19T07:29:09.008Z,14.73
2022-10-19T07:31:56.853Z,14.85
2022-10-19T07:34:44.695Z,16.33
2022-10-19T07:37:32.986Z,13.05
2022-10-19T07:40:20.488Z,13.00
2022-10-19T07:43:08.486Z,14.27
2022-10-19T07:46:02.516Z,14.27
2022-10-19T07:48:50.362Z,13.98
2022-10-19T07:51:39.698Z,14.80
2022-10-19T07:54:27.431Z,14.07
2022-10-19T07:57:15.730Z,15.25
2022-10-19T08:00:03.745Z,17.02
2022-10-19T08:02:59.660Z,17.35
2022-10-19T08:06:02.922Z,14.50
2022-10-19T08:08:51.159Z,16.90
2022-10-19T08:11:39.151Z,15.82
2022-10-19T08:14:26.738Z,14.93
2022-10-19T08:17:17.939Z,17.38
2022-10-19T08:20:14.426Z,15.38
2022-10-19T08:23:02.615Z,15.52
2022-10-19T08:25:50.105Z,16.80
2022-10-19T08:28:37.948Z,16.30
2022-10-19T08:31:25.301Z,16.05
2022-10-19T08:34:13.755Z,15.30
2022-10-19T08:37:10.137Z,17.58
2022-10-19T08:40:09.105Z,15.85
2022-10-19T08:43:00.228Z,15.15
2022-10-19T08:45:49.104Z,15.63
2022-10-19T08:48:39.169Z,16.15
2022-10-19T08:51:28.742Z,15.32
2022-10-19T08:54:18.429Z,16.60
2022-10-19T08:57:17.024Z,17.45
2022-10-19T09:00:08.406Z,21.10
2022-10-19T09:03:04.225Z,15.52
2022-10-19T09:06:01.867Z,17.85
2022-10-19T09:08:54.838Z,16.95
2022-10-19T09:11:48.044Z,18.42
2022-10-19T09:14:39.293Z,17.30
2022-10-19T09:17:27.524Z,17.52
2022-10-19T09:20:16.540Z,17.83
2022-10-19T09:23:16.486Z,17.67
2022-10-19T09:26:04.899Z,25.45
2022-10-19T09:29:11.561Z,15.77
2022-10-19T09:32:00.898Z,15.00
2022-10-19T09:35:00.493Z,20.23
2022-10-19T09:37:49.239Z,20.33
2022-10-19T09:40:37.084Z,16.05
2022-10-19T09:43:25.762Z,15.77
2022-10-19T09:46:19.969Z,15.13
2022-10-19T09:49:09.456Z,13.65
2022-10-19T09:51:56.732Z,14.45
2022-10-19T09:54:44.784Z,14.43
2022-10-19T09:57:32.652Z,13.88
2022-10-19T10:00:23.738Z,18.60
2022-10-19T10:03:24.886Z,14.48
2022-10-19T10:06:16.921Z,12.18
2022-10-19T10:09:04.511Z,13.30
2022-10-19T10:11:52.321Z,15.63
2022-10-19T10:14:40.901Z,14.52
2022-10-19T10:17:30.497Z,13.00
2022-10-19T10:23:32.040Z,14.00
2022-10-19T10:26:20.062Z,20.55
2022-10-19T10:29:24.035Z,16.77
2022-10-19T10:32:13.202Z,16.25
2022-10-19T10:35:02.500Z,15.23
2022-10-19T10:37:50.476Z,14.68
2022-10-19T10:40:39.354Z,17.95
2022-10-19T10:43:31.274Z,17.55
2022-10-19T10:46:21.922Z,14.45
2022-10-19T10:49:17.208Z,13.45
2022-10-19T10:52:06.274Z,9.70
2022-10-19T10:58:43.927Z,8.40
2022-10-19T11:01:37.869Z,10.90
2022-10-19T11:04:29.119Z,10.30
2022-10-19T11:07:19.386Z,11.45
2022-10-19T11:10:27.081Z,12.68
2022-10-19T11:13:22.195Z,12.93
2022-10-19T11:16:14.348Z,13.98
2022-10-19T11:19:06.885Z,14.27
2022-10-19T11:21:57.543Z,17.23
2022-10-19T11:24:56.472Z,15.27
2022-10-19T11:28:03.041Z,13.82
2022-10-19T11:31:17.288Z,12.60
2022-10-19T11:34:32.319Z,16.08
2022-10-19T11:37:30.270Z,16.00
2022-10-19T11:40:45.832Z,15.40
2022-10-19T11:44:00.198Z,14.10
2022-10-19T11:47:06.937Z,12.88
2022-10-19T11:50:00.700Z,15.38
2022-10-19T11:53:01.075Z,15.98
2022-10-19T11:55:56.796Z,14.13
2022-10-19T11:58:51.999Z,12.82
2022-10-19T12:01:58.647Z,12.77
2022-10-19T12:04:46.513Z,10.93
2022-10-19T12:07:34.354Z,13.98
2022-10-19T12:10:26.127Z,10.10
2022-10-19T12:13:16.381Z,11.95
2022-10-19T12:16:05.378Z,9.95
2022-10-19T12:18:54.978Z,9.23
2022-10-19T12:21:45.736Z,11.50
2022-10-19T12:24:34.881Z,10.05
2022-10-19T12:27:28.311Z,11.77
2022-10-19T12:30:17.796Z,7.10
2022-10-19T12:33:08.334Z,7.55
2022-10-19T12:35:55.998Z,9.77
2022-10-19T12:38:50.800Z,7.10
2022-10-19T12:42:04.013Z,7.25
2022-10-19T12:45:06.854Z,7.28
2022-10-19T12:48:12.783Z,6.38
2022-10-19T12:51:01.826Z,7.68
2022-10-19T12:53:51.615Z,5.85
2022-10-19T12:56:50.556Z,5.68
2022-10-19T12:59:46.343Z,5.75
2022-10-19T13:02:36.101Z,6.45
2022-10-19T13:05:25.629Z,6.38
2022-10-19T13:08:24.841Z,4.97
2022-10-19T13:11:16.807Z,7.72
2022-10-19T13:14:31.964Z,6.78
2022-10-19T13:17:36.002Z,5.03
2022-10-19T13:20:25.854Z,6.63
2022-10-19T13:23:13.747Z,6.63
2022-10-19T13:26:30.887Z,4.80
2022-10-19T13:29:28.920Z,6.13
2022-10-19T13:32:35.915Z,4.93
2022-10-19T13:35:30.129Z,5.47
2022-10-19T13:38:22.267Z,4.63
2022-10-19T13:41:19.311Z,5.20
2022-10-19T13:46:40.918Z,5.53
2022-10-19T13:49:37.042Z,7.70
2022-10-19T13:52:42.878Z,7.85
2022-10-19T13:55:48.331Z,4.90
2022-10-19T13:58:58.918Z,4.13
2022-10-19T14:01:46.236Z,3.53
2022-10-19T14:04:36.655Z,4.28
2022-10-19T14:07:26.965Z,6.47
2022-10-19T14:10:25.183Z,6.82
2022-10-19T14:13:22.444Z,3.85
2022-10-19T14:16:36.787Z,5.63
2022-10-19T14:19:32.086Z,3.65
2022-10-19T14:22:22.296Z,8.18
2022-10-19T14:25:20.170Z,3.83
2022-10-19T14:28:07.559Z,4.13
2022-10-19T14:30:58.039Z,4.70
2022-10-19T14:33:48.766Z,7.68
2022-10-19T14:36:38.458Z,9.48
2022-10-19T14:39:33.712Z,4.50
2022-10-19T14:42:21.397Z,4.18
2022-10-19T14:45:32.617Z,3.92
2022-10-19T14:48:20.445Z,3.75
2022-10-19T14:51:26.639Z,5.07
2022-10-19T14:54:14.047Z,3.97
2022-10-19T14:57:01.473Z,4.90
2022-10-19T14:59:51.222Z,4.68
2022-10-19T15:02:44.783Z,3.72
2022-10-19T15:05:34.051Z,4.63
2022-10-19T15:08:28.177Z,3.75
2022-10-19T15:11:27.590Z,6.07
2022-10-19T15:14:16.593Z,5.93
2022-10-19T15:17:05.853Z,4.80
2022-10-19T15:19:55.618Z,4.82
2022-10-19T15:22:42.908Z,4.90
2022-10-19T15:25:39.998Z,4.28
2022-10-19T15:28:37.582Z,4.60
2022-10-19T15:31:30.331Z,5.80
2022-10-19T15:34:23.307Z,3.55
2022-10-19T15:37:17.132Z,6.32
2022-10-19T15:40:12.005Z,7.40
2022-10-19T15:42:59.699Z,4.93
2022-10-19T15:45:47.079Z,4.68
2022-10-19T15:48:48.098Z,5.18
2022-10-19T15:51:38.117Z,5.18
2022-10-19T15:54:25.428Z,7.72
2022-10-19T15:57:33.392Z,6.32
2022-10-19T16:00:21.934Z,6.97
2022-10-19T16:03:09.359Z,5.95
2022-10-19T16:05:56.594Z,5.75
2022-10-19T16:08:46.223Z,5.95
2022-10-19T16:11:35.281Z,5.63
2022-10-19T16:14:22.491Z,5.97
2022-10-19T16:17:12.295Z,4.30
2022-10-19T16:20:00.163Z,5.75
2022-10-19T16:22:47.794Z,5.07
2022-10-19T16:25:35.701Z,4.72
2022-10-19T16:28:22.923Z,6.57
2022-10-19T16:31:10.983Z,6.80
2022-10-19T16:33:58.417Z,6.45
2022-10-19T16:36:46.198Z,5.82
2022-10-19T16:39:33.370Z,4.75
2022-10-19T16:42:23.006Z,4.22
2022-10-19T16:45:13.519Z,7.05
2022-10-19T16:48:00.701Z,7.25
2022-10-19T16:51:10.588Z,6.90
2022-10-19T16:53:59.443Z,4.72
2022-10-19T16:56:47.719Z,7.65
2022-10-19T16:59:35.453Z,6.93
2022-10-19T17:02:23.045Z,5.68
2022-10-19T17:05:10.523Z,4.40
2022-10-19T17:07:57.918Z,5.28
2022-10-19T17:10:45.632Z,5.75
2022-10-19T17:13:32.816Z,6.43
2022-10-19T17:16:21.210Z,6.10
2022-10-19T17:19:09.317Z,5.22
2022-10-19T17:21:58.102Z,6.43
2022-10-19T17:24:47.603Z,5.45
2022-10-19T17:27:34.989Z,5.65
2022-10-19T17:30:23.030Z,4.97
2022-10-19T17:33:10.232Z,6.10
2022-10-19T17:36:03.639Z,7.43
2022-10-19T17:38:51.014Z,7.15
2022-10-19T17:41:39.135Z,8.35
2022-10-19T17:44:27.236Z,7.00
2022-10-19T17:50:23.550Z,7.43
2022-10-19T17:53:11.051Z,8.40
2022-10-19T17:56:02.516Z,6.35
2022-10-19T17:58:50.617Z,6.80
2022-10-19T18:01:38.056Z,6.80
2022-10-19T18:04:25.492Z,7.40
2022-10-19T18:07:12.883Z,10.13
2022-10-19T18:10:00.726Z,6.68
2022-10-19T18:12:48.039Z,7.30
2022-10-19T18:15:36.061Z,9.45
2022-10-19T18:18:25.023Z,10.35
2022-10-19T18:21:13.690Z,8.57
2022-10-19T18:24:02.799Z,7.00
2022-10-19T18:26:51.750Z,7.18
2022-10-19T18:29:40.008Z,5.70
2022-10-19T18:32:27.213Z,7.35
2022-10-19T18:35:14.740Z,6.45
2022-10-19T18:38:02.255Z,7.13
2022-10-19T18:40:50.086Z,6.85
2022-10-19T18:43:37.469Z,8.38
2022-10-19T18:46:25.699Z,7.28
2022-10-19T18:49:13.095Z,5.82
2022-10-19T18:52:00.983Z,7.15
2022-10-19T18:54:48.170Z,6.72
2022-10-19T18:57:35.915Z,7.10
2022-10-19T19:00:23.241Z,5.55
2022-10-19T19:03:11.061Z,6.88
2022-10-19T19:06:02.324Z,7.93
2022-10-19T19:08:50.191Z,6.25
2022-10-19T19:11:38.481Z,7.90
2022-10-19T19:14:26.400Z,7.15
2022-10-19T19:17:13.888Z,8.43
2022-10-19T19:20:01.743Z,7.15
2022-10-19T19:22:49.194Z,8.13
2022-10-19T19:25:40.410Z,7.20
2022-10-19T19:28:27.643Z,10.10
2022-10-19T19:31:18.454Z,7.82
2022-10-19T19:34:06.782Z,7.13
2022-10-19T19:36:54.669Z,7.47
2022-10-19T19:39:42.313Z,7.22
2022-10-19T19:42:29.502Z,9.20
2022-10-19T19:45:17.046Z,7.00
2022-10-19T19:48:04.466Z,7.93
2022-10-19T19:50:52.710Z,7.50
2022-10-19T19:53:40.232Z,8.90
2022-10-19T19:56:28.986Z,6.97
2022-10-19T19:59:16.566Z,7.22
2022-10-19T20:02:04.730Z,10.60
2022-10-19T20:04:52.222Z,8.03
2022-10-19T20:07:39.688Z,9.60
2022-10-19T20:10:27.218Z,8.20
2022-10-19T20:13:14.663Z,7.87
2022-10-19T20:16:07.848Z,8.83
2022-10-19T20:19:21.287Z,8.03
2022-10-19T20:22:08.805Z,8.53
2022-10-19T20:24:56.215Z,7.03
2022-10-19T20:27:44.205Z,6.73
2022-10-19T20:30:32.051Z,6.70
2022-10-19T20:33:19.543Z,7.33
2022-10-19T20:36:08.265Z,6.30
2022-10-19T20:38:57.178Z,6.90
2022-10-19T20:41:45.054Z,9.00
2022-10-19T20:44:32.486Z,8.07
2022-10-19T20:47:20.020Z,7.53
2022-10-19T20:50:08.292Z,8.60
2022-10-19T20:52:55.814Z,8.77
2022-10-19T20:55:43.317Z,10.77
2022-10-19T20:58:30.833Z,8.37
2022-10-19T21:01:19.308Z,6.97
2022-10-19T21:04:08.377Z,9.03
2022-10-19T21:06:56.479Z,9.90
2022-10-19T21:09:44.385Z,10.53
2022-10-19T21:12:31.837Z,9.90
2022-10-19T21:15:19.749Z,11.77
2022-10-19T21:18:07.251Z,9.67
2022-10-19T21:20:54.790Z,9.50
2022-10-19T21:23:42.807Z,11.27
2022-10-19T21:26:30.571Z,10.77
2022-10-19T21:29:18.073Z,12.87
2022-10-19T21:32:05.584Z,10.27
2022-10-19T21:34:53.155Z,8.97
2022-10-19T21:37:41.255Z,10.07
2022-10-19T21:40:29.122Z,13.10
2022-10-19T21:43:16.557Z,11.23
2022-10-19T21:46:04.609Z,11.67
2022-10-19T21:48:53.203Z,11.97
2022-10-19T21:51:45.666Z,11.50
2022-10-19T21:54:33.595Z,12.00
2022-10-19T21:57:21.012Z,11.87
2022-10-19T22:00:09.471Z,13.77
2022-10-19T22:02:56.959Z,12.80
2022-10-19T22:05:50.759Z,15.13
2022-10-19T22:08:38.995Z,12.53
2022-10-19T22:11:27.281Z,13.17
2022-10-19T22:14:16.191Z,12.67
2022-10-19T22:17:04.329Z,16.23
2022-10-19T22:19:51.852Z,20.77
2022-10-19T22:22:39.722Z,16.47
2022-10-19T22:25:27.638Z,15.77
2022-10-19T22:28:15.082Z,16.20
2022-10-19T22:31:03.012Z,14.43
2022-10-19T22:33:51.066Z,16.27
2022-10-19T22:36:38.625Z,12.97
2022-10-19T22:39:27.939Z,15.87
2022-10-19T22:42:15.855Z,16.37
2022-10-19T22:45:03.376Z,14.73
2022-10-19T22:47:51.205Z,17.17
2022-10-19T22:50:38.649Z,17.57
2022-10-19T22:53:26.466Z,15.33
2022-10-19T22:56:14.106Z,15.17
2022-10-19T22:59:02.729Z,21.20
2022-10-19T23:01:50.281Z,23.50
2022-10-19T23:04:38.145Z,16.63
2022-10-19T23:07:26.057Z,16.40
2022-10-19T23:10:13.658Z,20.17
2022-10-19T23:13:01.084Z,17.03
2022-10-19T23:15:49.046Z,18.13
2022-10-19T23:18:37.512Z,18.40
2022-10-19T23:21:25.337Z,22.50
2022-10-19T23:24:12.828Z,19.63
2022-10-19T23:27:00.323Z,17.83
2022-10-19T23:29:48.274Z,18.40
2022-10-19T23:32:35.756Z,20.13
2022-10-19T23:35:23.605Z,21.53
2022-10-19T23:38:11.293Z,20.13
2022-10-19T23:40:59.306Z,21.70
2022-10-19T23:43:46.792Z,22.00
2022-10-19T23:46:34.699Z,22.17
2022-10-19T23:49:22.724Z,23.30
2022-10-19T23:52:10.887Z,21.50
2022-10-19T23:54:58.842Z,26.63
2022-10-19T23:57:46.070Z,24.70
